Time;durP1;ratioP1;P1;durP2;ratioP2;P2;SDS_P1;SDS_P2;PMS_P1;PMS_P2;Temp;Humidity;BMP_temperature;BMP_pressure;BME280_temperature;BME280_humidity;BME280_pressure;Samples;Min_cycle;Max_cycle;Signal;HPM_P1;HPM_P2
2022/05/01 00:01:53;;;;;;;6.77;5.83;;;;;;;9.70;100.00;99639.72;4966071;28;20222;-79
2022/05/01 00:04:24;;;;;;;8.00;6.13;;;;;;;9.77;100.00;99643.78;5010338;28;20289;-79
2022/05/01 00:06:53;;;;;;;13.13;6.97;;;;;;;9.67;100.00;99637.25;5012707;28;20202;-79
2022/05/01 00:09:22;;;;;;;8.47;6.17;;;;;;;9.45;100.00;99641.00;5001710;28;20226;-78
2022/05/01 00:11:57;;;;;;;10.80;6.57;;;;;;;9.39;100.00;99641.34;4912926;29;20209;-79
2022/05/01 00:14:28;;;;;;;9.40;6.50;;;;;;;9.33;100.00;99639.00;4910673;29;20206;-79
2022/05/01 00:16:59;;;;;;;8.07;6.33;;;;;;;9.50;100.00;99634.63;4915346;29;20201;-79
2022/05/01 00:19:29;;;;;;;8.93;6.13;;;;;;;9.57;100.00;99638.69;4907347;29;20198;-79
2022/05/01 00:22:19;;;;;;;9.90;6.67;;;;;;;9.41;100.00;99634.16;4924748;29;20228;-79
2022/05/01 00:24:48;;;;;;;11.83;6.03;;;;;;;9.34;100.00;99631.91;4951289;29;20200;-78
2022/05/01 00:27:18;;;;;;;8.63;6.67;;;;;;;9.18;100.00;99635.34;4945459;29;20196;-79
2022/05/01 00:29:47;;;;;;;7.70;6.10;;;;;;;9.21;100.00;99633.47;4958390;28;20333;-79
2022/05/01 00:32:18;;;;;;;9.53;7.27;;;;;;;9.20;100.00;99630.00;5008885;28;20201;-78
2022/05/01 00:37:36;;;;;;;9.13;6.83;;;;;;;9.04;100.00;99634.31;5010145;28;20198;-78
2022/05/01 00:40:10;;;;;;;8.43;6.47;;;;;;;9.12;100.00;99627.72;5009651;28;20323;-78
2022/05/01 00:42:43;;;;;;;8.27;5.97;;;;;;;9.26;100.00;99631.44;5032151;28;20225;-78
2022/05/01 00:45:12;;;;;;;8.33;6.43;;;;;;;9.17;100.00;99636.28;5089461;28;20195;-78
2022/05/01 00:47:44;;;;;;;8.83;5.80;;;;;;;9.24;100.00;99630.66;5072423;28;20207;-80
2022/05/01 00:50:18;;;;;;;8.97;7.00;;;;;;;9.18;100.00;99634.50;5069600;28;20240;-78
2022/05/01 00:52:47;;;;;;;11.10;6.00;;;;;;;9.28;100.00;99635.75;5067305;28;20744;-78
2022/05/01 00:55:17;;;;;;;8.87;6.70;;;;;;;9.11;100.00;99639.22;5067582;28;20199;-79
2022/05/01 00:57:48;;;;;;;10.53;6.87;;;;;;;9.14;100.00;99641.72;4991050;28;20206;-79
2022/05/01 01:00:18;;;;;;;7.23;6.53;;;;;;;9.24;100.00;99639.47;4989503;28;20207;-78
2022/05/01 01:02:47;;;;;;;9.13;6.40;;;;;;;9.18;100.00;99634.50;4973484;28;20228;-79
2022/05/01 01:05:16;;;;;;;7.47;6.23;;;;;;;9.25;100.00;99637.66;4962121;28;20204;-78
2022/05/01 01:07:45;;;;;;;7.83;6.60;;;;;;;9.22;100.00;99636.03;4931628;29;20216;-79
2022/05/01 01:10:14;;;;;;;8.53;6.53;;;;;;;9.29;100.00;99628.66;4931576;29;20214;-78
2022/05/01 01:12:58;;;;;;;13.53;6.77;;;;;;;9.13;100.00;99637.34;4938561;29;20220;-78
2022/05/01 01:15:31;;;;;;;7.33;6.60;;;;;;;9.22;100.00;99636.03;4936689;29;20295;-78
2022/05/01 01:18:02;;;;;;;10.13;6.67;;;;;;;9.29;100.00;99631.31;4931740;29;20256;-78
2022/05/01 01:20:33;;;;;;;8.90;7.00;;;;;;;9.21;100.00;99625.56;4918056;29;20212;-79
2022/05/01 01:23:06;;;;;;;7.83;6.50;;;;;;;9.27;100.00;99634.03;4991979;28;20218;-78
2022/05/01 01:25:38;;;;;;;10.03;6.80;;;;;;;9.31;100.00;99640.00;5006383;28;20201;-78
2022/05/01 01:28:08;;;;;;;7.50;5.80;;;;;;;9.37;100.00;99639.72;5009810;28;20676;-79
2022/05/01 01:33:54;;;;;;;8.30;6.40;;;;;;;9.29;100.00;99631.31;4953542;29;20209;-79
2022/05/01 01:36:24;;;;;;;7.87;6.77;;;;;;;9.16;100.00;99631.91;5001667;28;20203;-79
2022/05/01 01:38:56;;;;;;;7.93;6.93;;;;;;;8.99;100.00;99639.00;5007296;28;20237;-79
2022/05/01 01:41:29;;;;;;;9.97;6.60;;;;;;;9.13;100.00;99632.06;5005364;28;20195;-78
2022/05/01 01:43:59;;;;;;;8.10;6.80;;;;;;;9.08;100.00;99636.75;5008898;28;20318;-78
2022/05/01 01:46:27;;;;;;;9.60;6.90;;;;;;;9.05;100.00;99628.09;5054664;28;20218;-79
2022/05/01 01:48:56;;;;;;;8.97;6.80;;;;;;;9.13;100.00;99634.72;5053995;28;20208;-78
2022/05/01 01:51:26;;;;;;;10.33;7.03;;;;;;;9.16;100.00;99631.91;5052363;28;20190;-78
2022/05/01 01:53:56;;;;;;;12.00;7.47;;;;;;;9.16;100.00;99633.69;5052217;28;20315;-78
2022/05/01 01:56:27;;;;;;;9.73;7.20;;;;;;;9.24;100.00;99628.88;5057338;28;20197;-79
2022/05/01 01:58:59;;;;;;;9.50;6.93;;;;;;;9.29;100.00;99620.75;5056303;28;20189;-78
2022/05/01 02:01:27;;;;;;;10.33;6.90;;;;;;;9.23;100.00;99616.59;5053782;28;20672;-79
2022/05/01 02:03:56;;;;;;;7.13;6.43;;;;;;;9.25;100.00;99616.53;5054759;28;20240;-78
2022/05/01 02:06:25;;;;;;;10.57;7.07;;;;;;;8.98;100.00;99619.66;5063935;28;20204;-78
2022/05/01 02:08:58;;;;;;;8.80;6.73;;;;;;;8.94;100.00;99620.72;5061314;28;20201;-78
2022/05/01 02:11:26;;;;;;;8.50;7.47;;;;;;;8.99;100.00;99617.88;5054019;28;20228;-79
2022/05/01 02:13:56;;;;;;;9.53;6.90;;;;;;;8.88;100.00;99616.63;5038820;28;20398;-79
2022/05/01 02:16:26;;;;;;;8.80;7.37;;;;;;;8.86;100.00;99612.31;5052967;28;20185;-79
2022/05/01 02:18:55;;;;;;;8.87;7.20;;;;;;;8.93;100.00;99626.09;5054766;28;20199;-79
2022/05/01 02:21:37;;;;;;;8.33;7.50;;;;;;;8.91;100.00;99618.25;5055983;28;20196;-78
2022/05/01 02:24:09;;;;;;;9.77;7.43;;;;;;;9.02;100.00;99615.06;5053062;28;20304;-79
2022/05/01 02:26:40;;;;;;;12.17;7.70;;;;;;;9.13;100.00;99613.56;5055344;28;20207;-79
2022/05/01 02:29:15;;;;;;;10.87;7.07;;;;;;;9.20;100.00;99613.28;5053833;28;20189;-79
2022/05/01 02:31:53;;;;;;;11.27;7.73;;;;;;;9.14;100.00;99604.72;5019768;28;20259;-79
2022/05/01 02:34:27;;;;;;;10.67;7.07;;;;;;;9.14;100.00;99617.94;5011203;28;20206;-79
2022/05/01 02:36:56;;;;;;;11.67;6.93;;;;;;;9.22;100.00;99606.97;4996292;28;20206;-79
2022/05/01 02:39:27;;;;;;;8.60;7.70;;;;;;;9.21;100.00;99607.91;4936548;29;20205;-79
2022/05/01 02:41:58;;;;;;;10.13;7.43;;;;;;;9.22;100.00;99606.13;4935031;29;20200;-79
2022/05/01 02:44:27;;;;;;;10.97;7.67;;;;;;;9.12;100.00;99618.94;4932636;29;20231;-79
2022/05/01 02:46:58;;;;;;;8.47;6.90;;;;;;;9.24;100.00;99615.66;4934881;29;20227;-79
2022/05/01 02:49:26;;;;;;;13.47;7.07;;;;;;;9.25;100.00;99614.72;4932443;29;20229;-79
2022/05/01 02:51:55;;;;;;;9.33;7.00;;;;;;;9.25;100.00;99613.88;4932979;29;20193;-79
2022/05/01 02:54:23;;;;;;;10.13;7.00;;;;;;;9.27;100.00;99604.09;4934098;29;20205;-79
2022/05/01 02:57:10;;;;;;;8.50;7.20;;;;;;;9.13;100.00;99610.06;4946030;28;20214;-79
2022/05/01 02:59:41;;;;;;;8.60;7.10;;;;;;;9.23;100.00;99600.75;5024694;28;20472;-79
2022/05/01 03:02:11;;;;;;;8.80;7.03;;;;;;;9.22;100.00;99595.53;5029786;28;20198;-79
2022/05/01 03:04:41;;;;;;;10.37;7.03;;;;;;;9.36;100.00;99609.78;5033483;28;20356;-79
2022/05/01 03:07:09;;;;;;;9.93;7.30;;;;;;;9.45;100.00;99598.69;5033277;28;20194;-79
2022/05/01 03:09:38;;;;;;;9.40;6.87;;;;;;;9.57;100.00;99605.16;4993961;28;20214;-79
2022/05/01 03:12:10;;;;;;;9.57;7.33;;;;;;;9.52;100.00;99607.16;4993765;28;20681;-80
2022/05/01 03:14:39;;;;;;;9.77;7.23;;;;;;;9.44;100.00;99601.41;5013187;28;20225;-79
2022/05/01 03:17:07;;;;;;;9.37;7.40;;;;;;;9.35;100.00;99599.25;5008437;28;20253;-79
2022/05/01 03:22:25;;;;;;;8.43;7.00;;;;;;;9.39;100.00;99599.03;4974121;28;20204;-79
2022/05/01 03:24:54;;;;;;;8.47;7.10;;;;;;;9.37;100.00;99592.13;4907081;29;20221;-79
2022/05/01 03:27:26;;;;;;;9.17;7.10;;;;;;;9.53;100.00;99600.09;4865528;29;20194;-79
2022/05/01 03:32:42;;;;;;;8.60;6.80;;;;;;;9.52;100.00;99593.09;4889849;29;20211;-79
2022/05/01 03:35:17;;;;;;;11.60;6.77;;;;;;;9.38;100.00;99591.19;4924762;29;20197;-79
2022/05/01 03:37:48;;;;;;;10.53;6.73;;;;;;;9.46;100.00;99589.00;4925598;29;20211;-79
2022/05/01 03:40:18;;;;;;;8.73;6.83;;;;;;;9.44;100.00;99585.56;4926882;29;20193;-79
2022/05/01 03:42:50;;;;;;;10.10;6.87;;;;;;;9.44;100.00;99583.75;4944217;28;20191;-79
2022/05/01 03:45:18;;;;;;;14.70;8.33;;;;;;;9.48;100.00;99583.63;5003564;28;20354;-79
2022/05/01 03:47:48;;;;;;;9.17;6.80;;;;;;;9.52;100.00;99587.81;5012980;28;20737;-79
2022/05/01 03:50:18;;;;;;;10.83;7.43;;;;;;;9.48;100.00;99580.97;4996346;28;20189;-79
2022/05/01 03:52:48;;;;;;;9.07;6.80;;;;;;;9.46;100.00;99587.22;5020600;28;20201;-79
2022/05/01 03:55:17;;;;;;;11.03;7.10;;;;;;;9.40;100.00;99584.88;5021605;28;20201;-79
2022/05/01 03:57:46;;;;;;;9.03;7.17;;;;;;;9.45;100.00;99580.19;5029024;28;20741;-79
2022/05/01 04:00:19;;;;;;;8.00;6.97;;;;;;;9.26;100.00;99589.16;5051122;28;20215;-79
2022/05/01 04:02:52;;;;;;;9.50;7.17;;;;;;;9.20;100.00;99582.41;5051172;28;20335;-79
2022/05/01 04:05:25;;;;;;;9.23;7.10;;;;;;;9.07;100.00;99582.19;5053464;28;20223;-79
2022/05/01 04:07:54;;;;;;;9.87;7.33;;;;;;;9.19;100.00;99586.00;5010448;28;20278;-79
2022/05/01 04:10:24;;;;;;;12.10;7.43;;;;;;;9.17;100.00;99579.94;5009429;28;20192;-79
2022/05/01 04:12:54;;;;;;;8.63;7.13;;;;;;;9.26;100.00;99583.88;4953381;28;20196;-79
2022/05/01 04:15:25;;;;;;;10.10;7.03;;;;;;;9.26;100.00;99586.50;4945161;29;20283;-79
2022/05/01 04:17:56;;;;;;;8.20;7.00;;;;;;;9.30;100.00;99594.22;4952874;29;20664;-80
2022/05/01 04:20:28;;;;;;;10.30;6.90;;;;;;;9.30;100.00;99588.06;4953915;29;20199;-79
2022/05/01 04:22:58;;;;;;;10.90;7.27;;;;;;;9.29;100.00;99592.50;4942458;29;20220;-79
2022/05/01 04:25:31;;;;;;;8.03;6.73;;;;;;;9.36;100.00;99604.50;4950137;29;20299;-79
2022/05/01 04:28:02;;;;;;;9.40;6.87;;;;;;;9.26;100.00;99597.09;4857878;29;20207;-79
2022/05/01 04:30:34;;;;;;;11.30;6.63;;;;;;;9.25;100.00;99593.59;4855806;29;20234;-79
2022/05/01 04:33:08;;;;;;;8.63;6.97;;;;;;;9.29;100.00;99599.59;4852111;29;20215;-79
2022/05/01 04:35:40;;;;;;;13.13;7.30;;;;;;;9.39;100.00;99606.97;4854598;29;20203;-79
2022/05/01 04:38:11;;;;;;;10.10;6.63;;;;;;;9.22;100.00;99598.19;4900812;28;20208;-79
2022/05/01 04:40:41;;;;;;;8.63;7.00;;;;;;;9.15;100.00;99603.78;4966586;28;20203;-79
2022/05/01 04:43:12;;;;;;;8.37;7.47;;;;;;;9.17;100.00;99601.94;4953488;29;20197;-79
2022/05/01 04:45:44;;;;;;;10.03;6.97;;;;;;;9.24;100.00;99606.88;4948287;29;20223;-79
2022/05/01 04:48:17;;;;;;;10.77;7.10;;;;;;;9.31;100.00;99600.34;4947427;29;20196;-79
2022/05/01 04:50:47;;;;;;;8.37;6.40;;;;;;;9.31;100.00;99605.66;4949684;29;20204;-79
2022/05/01 04:53:18;;;;;;;7.63;6.43;;;;;;;9.30;100.00;99602.16;5010777;28;20209;-79
2022/05/01 04:55:49;;;;;;;11.03;7.67;;;;;;;9.39;100.00;99603.47;5026358;28;20204;-79
2022/05/01 04:58:20;;;;;;;9.70;6.60;;;;;;;9.47;100.00;99598.63;5028696;28;20213;-79
2022/05/01 05:00:51;;;;;;;8.73;6.77;;;;;;;9.59;100.00;99599.78;5031365;28;20201;-79
2022/05/01 05:03:20;;;;;;;8.87;6.70;;;;;;;9.64;100.00;99592.44;5028740;28;20755;-79
2022/05/01 05:05:49;;;;;;;7.43;6.47;;;;;;;9.60;100.00;99602.34;5031165;28;20213;-79
2022/05/01 05:11:05;;;;;;;6.83;5.97;;;;;;;9.65;100.00;99607.38;5053056;28;20225;-79
2022/05/01 05:13:35;;;;;;;10.80;6.93;;;;;;;9.68;100.00;99597.50;5021375;28;20197;-80
2022/05/01 05:16:12;;;;;;;8.93;6.47;;;;;;;9.79;100.00;99601.34;5054236;28;20280;-79
2022/05/01 05:18:48;;;;;;;8.80;6.20;;;;;;;9.81;100.00;99602.97;5053035;28;20189;-79
2022/05/01 05:21:20;;;;;;;10.03;6.30;;;;;;;9.66;100.00;99602.03;5058972;28;20212;-79
2022/05/01 05:23:49;;;;;;;11.17;6.57;;;;;;;9.56;100.00;99603.44;5055868;28;20287;-79
2022/05/01 05:26:19;;;;;;;9.53;6.30;;;;;;;9.64;100.00;99603.88;5054291;28;20231;-79
2022/05/01 05:28:47;;;;;;;8.33;6.87;;;;;;;9.58;100.00;99603.34;5017732;28;20211;-79
2022/05/01 05:31:19;;;;;;;10.50;6.70;;;;;;;9.76;100.00;99610.31;4973164;28;20227;-79
2022/05/01 05:33:49;;;;;;;10.20;6.50;;;;;;;9.90;100.00;99612.22;4970505;28;20250;-79
2022/05/01 05:36:18;;;;;;;8.93;6.20;;;;;;;9.91;100.00;99627.16;4970875;28;20192;-79
2022/05/01 05:38:48;;;;;;;8.27;6.70;;;;;;;10.01;100.00;99617.78;4967411;28;20237;-79
2022/05/01 05:41:20;;;;;;;8.47;6.23;;;;;;;10.05;100.00;99619.34;4929253;28;20282;-79
2022/05/01 05:43:48;;;;;;;9.80;5.90;;;;;;;10.14;100.00;99623.28;4968238;28;20218;-79
2022/05/01 05:46:19;;;;;;;11.10;6.53;;;;;;;9.97;100.00;99614.44;4978100;28;20249;-79
2022/05/01 05:48:49;;;;;;;9.20;5.83;;;;;;;10.04;100.00;99622.91;4965096;28;20198;-79
2022/05/01 05:51:20;;;;;;;11.53;6.30;;;;;;;10.07;100.00;99612.16;5006600;28;20202;-80
2022/05/01 05:53:52;;;;;;;8.43;5.83;;;;;;;9.97;100.00;99618.88;4952966;29;20189;-79
2022/05/01 05:56:22;;;;;;;9.93;6.70;;;;;;;9.95;100.00;99618.13;4976294;28;20199;-79
2022/05/01 05:58:56;;;;;;;10.43;6.30;;;;;;;10.12;100.00;99622.47;5011893;28;20650;-79
2022/05/01 06:01:26;;;;;;;8.53;5.77;;;;;;;10.13;100.00;99613.59;4989711;28;20202;-79
2022/05/01 06:03:56;;;;;;;10.23;6.43;;;;;;;10.10;100.00;99619.91;4994056;28;20670;-79
2022/05/01 06:06:24;;;;;;;11.53;6.17;;;;;;;10.19;100.00;99619.41;4993339;28;20678;-78
2022/05/01 06:08:54;;;;;;;10.33;6.67;;;;;;;10.17;100.00;99620.44;4994015;28;20203;-78
2022/05/01 06:11:23;;;;;;;7.83;5.70;;;;;;;10.23;100.00;99617.47;4988409;28;20195;-79
2022/05/01 06:13:52;;;;;;;7.80;5.90;;;;;;;10.31;100.00;99624.06;4992096;28;20202;-79
2022/05/01 06:16:27;;;;;;;7.87;6.27;;;;;;;10.34;100.00;99619.56;4992380;28;20215;-79
2022/05/01 06:18:56;;;;;;;8.60;6.47;;;;;;;10.28;100.00;99618.94;4988858;28;20207;-79
2022/05/01 06:21:27;;;;;;;10.00;7.00;;;;;;;10.30;100.00;99622.34;4994504;28;20216;-79
2022/05/01 06:23:56;;;;;;;9.67;7.37;;;;;;;10.34;100.00;99622.22;4991809;28;20677;-79
2022/05/01 06:26:25;;;;;;;13.17;7.00;;;;;;;10.60;100.00;99624.22;5045574;28;20213;-79
2022/05/01 06:28:53;;;;;;;12.33;7.40;;;;;;;10.67;100.00;99630.03;5053089;28;20209;-80
2022/05/01 06:31:22;;;;;;;9.33;6.90;;;;;;;10.68;100.00;99629.94;5052254;28;20229;-79
2022/05/01 06:33:54;;;;;;;9.57;6.70;;;;;;;10.84;100.00;99625.50;5056933;28;20197;-79
2022/05/01 06:36:22;;;;;;;10.13;7.13;;;;;;;10.75;100.00;99627.81;5057757;28;20291;-79
2022/05/01 06:38:51;;;;;;;10.80;6.93;;;;;;;10.68;100.00;99632.59;5056624;28;20197;-80
2022/05/01 06:41:19;;;;;;;10.27;7.00;;;;;;;10.87;100.00;99622.66;5058657;28;20197;-79
2022/05/01 06:43:48;;;;;;;9.10;6.53;;;;;;;10.97;100.00;99632.72;5055624;28;20200;-79
2022/05/01 06:46:16;;;;;;;8.60;7.47;;;;;;;10.98;100.00;99629.13;5054062;28;20216;-79
2022/05/01 06:48:45;;;;;;;10.73;7.30;;;;;;;11.12;100.00;99619.44;5053638;28;20201;-79
2022/05/01 06:51:15;;;;;;;10.30;6.70;;;;;;;11.00;100.00;99624.59;4991146;28;20245;-79
2022/05/01 06:53:44;;;;;;;7.33;6.43;;;;;;;11.32;100.00;99622.72;4990429;28;20206;-79
2022/05/01 06:56:12;;;;;;;8.23;6.20;;;;;;;11.22;100.00;99621.53;4992945;28;20655;-79
2022/05/01 06:58:42;;;;;;;12.47;7.20;;;;;;;11.12;100.00;99622.09;4992226;28;20203;-82
2022/05/01 07:01:13;;;;;;;10.37;6.47;;;;;;;11.12;100.00;99626.53;4992359;28;20202;-78
2022/05/01 07:03:47;;;;;;;9.67;7.27;;;;;;;11.09;100.00;99624.03;4975202;28;20266;-79
2022/05/01 07:06:20;;;;;;;8.00;6.47;;;;;;;11.14;100.00;99629.94;4973145;28;20729;-79
2022/05/01 07:08:56;;;;;;;9.90;6.73;;;;;;;10.97;100.00;99624.78;4983521;28;20293;-79
2022/05/01 07:11:27;;;;;;;9.27;6.90;;;;;;;11.02;100.00;99622.72;4997110;28;20277;-79
2022/05/01 07:13:56;;;;;;;7.73;6.43;;;;;;;11.21;100.00;99618.03;5009972;28;20248;-79
2022/05/01 07:16:24;;;;;;;8.33;6.50;;;;;;;11.30;100.00;99628.13;4968432;28;20223;-79
2022/05/01 07:18:53;;;;;;;10.50;6.17;;;;;;;11.46;100.00;99631.53;4982212;28;20257;-79
2022/05/01 07:21:27;;;;;;;13.13;6.33;;;;;;;11.42;100.00;99622.06;4989008;28;20210;-79
2022/05/01 07:23:57;;;;;;;9.33;6.50;;;;;;;11.42;100.00;99619.41;4986569;28;20223;-79
2022/05/01 07:26:35;;;;;;;10.30;6.87;;;;;;;11.44;100.00;99628.13;4990276;28;20219;-79
2022/05/01 07:29:05;;;;;;;11.50;7.90;;;;;;;11.50;100.00;99631.38;4991071;28;20199;-79
2022/05/01 07:31:42;;;;;;;15.50;8.97;;;;;;;11.76;100.00;99618.19;4896813;29;20225;-79
2022/05/01 07:34:11;;;;;;;13.27;6.67;;;;;;;11.98;100.00;99622.25;4907876;29;20205;-79
2022/05/01 07:36:42;;;;;;;10.90;6.37;;;;;;;11.52;100.00;99611.75;4938405;29;20200;-79
2022/05/01 07:39:10;;;;;;;10.73;6.73;;;;;;;11.68;100.00;99617.00;4949579;28;20201;-79
2022/05/01 07:41:39;;;;;;;9.77;6.60;;;;;;;11.62;100.00;99620.00;4954174;28;20216;-79
2022/05/01 07:44:11;;;;;;;8.03;5.87;;;;;;;11.77;100.00;99616.41;4948271;28;20196;-79
2022/05/01 07:46:39;;;;;;;6.90;6.20;;;;;;;11.73;100.00;99607.78;4947709;28;20224;-79
2022/05/01 07:49:10;;;;;;;12.40;6.77;;;;;;;11.75;100.00;99607.69;4950084;28;20267;-79
2022/05/01 07:51:40;;;;;;;9.27;6.43;;;;;;;11.60;100.00;99612.16;4951719;28;20288;-79
2022/05/01 07:54:10;;;;;;;9.23;6.70;;;;;;;11.70;100.00;99610.63;4950074;28;20204;-79
2022/05/01 07:56:47;;;;;;;8.07;6.07;;;;;;;11.79;100.00;99614.53;4956606;28;20216;-80
2022/05/01 07:59:19;;;;;;;7.30;6.00;;;;;;;11.87;100.00;99612.28;4955385;28;20189;-81
2022/05/01 08:01:54;;;;;;;9.93;6.40;;;;;;;12.00;100.00;99607.91;4964047;28;20212;-80
2022/05/01 08:04:29;;;;;;;10.57;6.33;;;;;;;11.94;100.00;99610.09;5012659;28;20190;-81
2022/05/01 08:07:10;;;;;;;9.60;6.67;;;;;;;11.90;100.00;99612.09;4992398;28;20239;-81
2022/05/01 08:09:41;;;;;;;10.40;6.30;;;;;;;11.89;100.00;99612.19;4935931;29;20201;-81
2022/05/01 08:12:12;;;;;;;9.70;6.07;;;;;;;12.18;100.00;99608.56;4933456;29;20225;-81
2022/05/01 08:14:46;;;;;;;6.43;5.67;;;;;;;12.20;100.00;99609.31;4936693;28;20208;-79
2022/05/01 08:17:17;;;;;;;7.80;5.97;;;;;;;12.31;100.00;99606.81;4928147;29;20213;-80
2022/05/01 08:22:50;;;;;;;7.47;6.47;;;;;;;12.93;100.00;99611.63;4870230;29;20269;-79
2022/05/01 08:25:23;;;;;;;10.40;6.30;;;;;;;13.09;100.00;99606.16;4914167;29;20236;-79
2022/05/01 08:27:56;;;;;;;9.37;6.40;;;;;;;13.34;100.00;99603.59;4937281;29;20230;-82
2022/05/01 08:30:25;;;;;;;9.17;5.60;;;;;;;13.27;100.00;99599.63;4948760;28;20275;-81
2022/05/01 08:32:57;;;;;;;9.90;5.73;;;;;;;12.93;100.00;99595.69;4931561;29;20233;-82
2022/05/01 08:35:31;;;;;;;8.60;6.33;;;;;;;12.82;100.00;99599.06;4893389;29;20209;-82
2022/05/01 08:38:07;;;;;;;7.87;5.70;;;;;;;13.06;100.00;99603.72;4912210;29;20204;-82
2022/05/01 08:40:48;;;;;;;9.37;6.20;;;;;;;12.96;100.00;99603.47;4924125;28;20187;-82
2022/05/01 08:43:29;;;;;;;9.90;6.53;;;;;;;12.90;100.00;99595.91;4988329;28;20199;-82
2022/05/01 08:46:28;;;;;;;9.77;6.03;;;;;;;12.84;100.00;99593.66;4989438;28;20250;-81
2022/05/01 08:49:05;;;;;;;7.40;5.77;;;;;;;13.27;100.00;99585.47;4989734;28;20329;-81
2022/05/01 08:51:37;;;;;;;7.43;5.70;;;;;;;13.64;100.00;99586.47;4999646;28;20241;-81
2022/05/01 08:54:07;;;;;;;7.50;5.63;;;;;;;13.38;100.00;99585.59;5003154;28;20198;-81
2022/05/01 08:56:44;;;;;;;8.37;6.27;;;;;;;13.88;100.00;99587.38;4898067;29;20206;-81
2022/05/01 08:59:14;;;;;;;7.93;5.43;;;;;;;13.46;100.00;99594.75;4857037;29;20227;-81
2022/05/01 09:01:47;;;;;;;9.50;5.90;;;;;;;13.43;100.00;99591.47;4854824;29;20208;-82
2022/05/01 09:04:20;;;;;;;10.77;6.30;;;;;;;13.64;100.00;99594.44;4853441;29;20211;-82
2022/05/01 09:06:50;;;;;;;6.63;5.63;;;;;;;14.07;100.00;99583.41;4884882;29;20237;-81
2022/05/01 09:09:26;;;;;;;8.53;5.70;;;;;;;14.36;100.00;99589.31;4909544;29;20236;-82
2022/05/01 09:14:45;;;;;;;8.23;6.10;;;;;;;14.91;100.00;99586.13;4913468;29;20221;-81
2022/05/01 09:17:21;;;;;;;7.40;5.30;;;;;;;15.01;100.00;99583.63;4909535;29;20419;-81
2022/05/01 09:19:53;;;;;;;7.60;5.40;;;;;;;14.74;100.00;99579.38;4911724;29;20194;-82
2022/05/01 09:22:24;;;;;;;11.10;6.30;;;;;;;14.76;100.00;99580.09;4820656;29;20205;-82
2022/05/01 09:25:17;;;;;;;7.07;5.53;;;;;;;14.71;100.00;99578.75;4816996;29;20240;-81
2022/05/01 09:27:52;;;;;;;8.40;5.60;;;;;;;14.93;100.00;99589.53;4844814;29;20237;-81
2022/05/01 09:30:32;;;;;;;6.93;5.50;;;;;;;15.35;100.00;99587.25;4861911;29;20293;-78
2022/05/01 09:33:02;;;;;;;6.80;5.67;;;;;;;15.29;100.00;99585.03;4888815;29;20230;-79
2022/05/01 09:35:34;;;;;;;10.20;6.77;;;;;;;15.80;100.00;99593.50;4893486;29;20206;-78
2022/05/01 09:38:17;;;;;;;7.60;5.73;;;;;;;15.67;100.00;99582.97;4894419;29;20199;-82
2022/05/01 09:40:48;;;;;;;9.43;5.90;;;;;;;15.55;100.00;99583.03;4912047;29;20205;-81
2022/05/01 09:43:37;;;;;;;9.07;6.17;;;;;;;15.80;100.00;99582.84;4926464;29;20205;-81
2022/05/01 09:46:17;;;;;;;13.37;6.67;;;;;;;15.94;100.00;99579.94;4937069;28;20201;-81
2022/05/01 09:49:00;;;;;;;10.93;6.93;;;;;;;16.23;100.00;99574.94;5036646;28;20235;-81
2022/05/01 09:51:30;;;;;;;9.43;6.63;;;;;;;15.99;100.00;99585.75;5051140;28;20193;-81
2022/05/01 09:53:59;;;;;;;8.67;6.00;;;;;;;16.09;100.00;99574.31;5048667;28;20212;-81
2022/05/01 09:56:28;;;;;;;8.50;6.17;;;;;;;15.64;100.00;99577.00;5048246;28;20220;-81
2022/05/01 09:59:03;;;;;;;10.07;6.93;;;;;;;15.96;100.00;99580.66;5052308;28;20280;-81
2022/05/01 10:01:32;;;;;;;8.83;6.30;;;;;;;15.88;100.00;99583.09;5052520;28;20208;-81
2022/05/01 10:04:03;;;;;;;8.67;6.37;;;;;;;16.01;100.00;99578.44;5052029;28;20638;-81
2022/05/01 10:06:33;;;;;;;10.50;6.17;;;;;;;16.19;100.00;99576.13;5052552;28;20201;-81
2022/05/01 10:09:02;;;;;;;9.80;6.43;;;;;;;16.31;100.00;99579.66;5052736;28;20272;-81
2022/05/01 10:11:37;;;;;;;7.87;6.60;;;;;;;16.53;100.00;99576.94;5046473;28;20664;-81
2022/05/01 10:14:07;;;;;;;7.33;6.10;;;;;;;16.86;100.00;99575.13;5058157;28;20201;-81
2022/05/01 10:16:36;;;;;;;10.57;6.67;;;;;;;16.92;100.00;99571.97;5048439;28;20268;-81
2022/05/01 10:19:05;;;;;;;8.93;6.13;;;;;;;16.83;100.00;99572.72;5045643;28;20227;-81
2022/05/01 10:21:50;;;;;;;9.23;6.20;;;;;;;16.82;100.00;99573.72;5052274;28;20200;-81
2022/05/01 10:24:23;;;;;;;9.53;6.07;;;;;;;16.87;100.00;99571.47;5045293;28;20189;-81
2022/05/01 10:26:57;;;;;;;10.83;7.23;;;;;;;16.88;100.00;99570.50;5047787;28;20201;-81
2022/05/01 10:32:48;;;;;;;9.87;6.70;;;;;;;16.46;100.00;99574.88;5051945;28;20235;-80
2022/05/01 10:36:15;;;;;;;8.53;5.83;;;;;;;16.71;100.00;99574.59;5054062;28;20204;-81
2022/05/01 10:38:51;;;;;;;8.17;6.13;;;;;;;16.92;100.00;99566.63;5029751;28;20272;-80
2022/05/01 10:41:22;;;;;;;8.90;5.90;;;;;;;16.65;100.00;99560.84;5054122;28;20387;-81
2022/05/01 10:43:58;;;;;;;9.10;6.80;;;;;;;16.64;100.00;99560.00;5057561;28;20208;-81
2022/05/01 10:46:33;;;;;;;8.00;6.00;;;;;;;16.76;100.00;99555.47;5055350;28;20200;-81
2022/05/01 10:49:05;;;;;;;10.93;6.20;;;;;;;16.84;100.00;99553.88;5033907;28;20243;-80
2022/05/01 10:51:47;;;;;;;9.77;6.13;;;;;;;16.65;100.00;99550.16;5053763;28;20213;-81
2022/05/01 10:54:35;;;;;;;10.97;6.33;;;;;;;17.11;100.00;99553.38;5051790;28;20201;-80
2022/05/01 10:57:20;;;;;;;9.67;6.10;;;;;;;16.66;100.00;99549.16;5056556;28;20284;-81
2022/05/01 10:59:52;;;;;;;7.57;6.00;;;;;;;17.08;100.00;99547.41;5057187;28;20252;-80
2022/05/01 11:02:41;;;;;;;11.87;6.63;;;;;;;17.24;100.00;99545.16;5053609;28;20255;-81
2022/05/01 11:05:12;;;;;;;9.93;6.67;;;;;;;17.36;100.00;99543.25;5056309;28;20201;-80
2022/05/01 11:07:43;;;;;;;8.07;5.93;;;;;;;16.94;100.00;99539.72;5032854;28;20678;-81
2022/05/01 11:10:16;;;;;;;10.33;7.30;;;;;;;16.87;100.00;99537.53;5049680;28;20208;-81
2022/05/01 11:12:50;;;;;;;13.27;6.53;;;;;;;17.27;100.00;99534.16;5011927;28;20713;-80
2022/05/01 11:15:27;;;;;;;9.53;6.30;;;;;;;17.09;100.00;99533.94;5007366;28;20208;-81
2022/05/01 11:17:59;;;;;;;12.47;7.00;;;;;;;17.29;100.00;99534.06;5009030;28;20240;-81
2022/05/01 11:20:38;;;;;;;11.80;7.23;;;;;;;17.23;100.00;99529.22;5010741;28;20226;-81
2022/05/01 11:23:43;;;;;;;9.27;7.00;;;;;;;17.27;100.00;99534.16;4990748;28;20195;-81
2022/05/01 11:26:22;;;;;;;10.77;6.70;;;;;;;18.17;100.00;99522.75;4955764;28;20211;-81
2022/05/01 11:29:13;;;;;;;8.53;6.67;;;;;;;18.40;100.00;99524.19;4976354;28;20223;-82
2022/05/01 11:32:39;;;;;;;10.00;7.27;;;;;;;18.41;100.00;99517.00;4990136;28;20252;-81
2022/05/01 11:35:19;;;;;;;9.57;6.97;;;;;;;18.43;100.00;99512.34;5005600;28;20202;-82
2022/05/01 11:38:09;;;;;;;9.57;7.00;;;;;;;18.21;100.00;99521.50;5005585;28;20206;-81
2022/05/01 11:40:55;;;;;;;11.40;7.50;;;;;;;18.30;100.00;99504.56;4953917;28;20219;-82
2022/05/01 11:43:38;;;;;;;13.63;7.50;;;;;;;18.08;100.00;99515.53;4892024;29;20206;-82
2022/05/01 11:46:19;;;;;;;11.60;6.87;;;;;;;18.80;100.00;99510.69;4862118;29;20279;-82
2022/05/01 11:48:49;;;;;;;10.63;7.37;;;;;;;18.54;100.00;99498.81;4862682;29;20230;-81
2022/05/01 11:51:21;;;;;;;12.10;7.80;;;;;;;18.65;100.00;99496.03;4913791;29;20206;-82
2022/05/01 11:53:55;;;;;;;11.23;6.90;;;;;;;18.56;100.00;99500.38;4922483;29;20225;-82
2022/05/01 12:02:40;;;;;;;11.17;7.10;;;;;;;18.77;100.00;99500.25;4914212;29;20206;-81
2022/05/01 12:05:11;;;;;;;12.27;7.27;;;;;;;19.01;100.00;99489.09;4962515;28;20213;-81
2022/05/01 12:07:44;;;;;;;12.27;7.10;;;;;;;19.04;100.00;99488.78;4967811;28;20222;-83
2022/05/01 12:10:18;;;;;;;9.10;7.00;;;;;;;18.97;100.00;99487.66;4970903;28;20223;-81
2022/05/01 12:13:05;;;;;;;9.90;7.17;;;;;;;19.11;100.00;99491.75;4972716;28;20282;-82
2022/05/01 12:15:38;;;;;;;8.40;7.07;;;;;;;18.66;100.00;99494.19;5010124;28;20198;-81
2022/05/01 12:18:09;;;;;;;10.10;7.27;;;;;;;18.70;100.00;99480.34;5025416;28;20224;-81
2022/05/01 12:20:38;;;;;;;12.87;8.97;;;;;;;18.50;100.00;99476.78;5031658;28;20201;-82
2022/05/01 12:23:35;;;;;;;10.17;7.40;;;;;;;18.92;100.00;99475.69;5025713;28;20206;-82